createdAt,value
2023-12-07T00:00:36.949Z,0.00
2023-12-07T00:01:36.980Z,0.00
2023-12-07T00:02:36.934Z,0.00
2023-12-07T00:03:36.952Z,0.00
2023-12-07T00:04:36.926Z,0.00
2023-12-07T00:05:36.940Z,0.00
2023-12-07T00:06:36.877Z,0.00
2023-12-07T00:07:36.952Z,0.00
2023-12-07T00:08:36.876Z,0.00
2023-12-07T00:09:36.856Z,0.00
2023-12-07T00:10:36.877Z,0.00
2023-12-07T00:11:36.856Z,0.00
2023-12-07T00:12:36.894Z,0.00
2023-12-07T00:13:36.820Z,0.00
2023-12-07T00:14:36.814Z,0.00
2023-12-07T00:15:36.787Z,0.00
2023-12-07T00:16:36.785Z,0.00
2023-12-07T00:17:36.762Z,0.00
2023-12-07T00:18:36.805Z,0.00
2023-12-07T00:19:36.882Z,0.00
2023-12-07T00:20:36.755Z,0.00
2023-12-07T00:21:36.723Z,0.00
2023-12-07T00:22:36.727Z,0.00
2023-12-07T00:23:36.711Z,0.00
2023-12-07T00:24:36.708Z,0.00
2023-12-07T00:25:36.685Z,0.00
2023-12-07T00:26:36.678Z,0.00
2023-12-07T00:27:36.686Z,0.00
2023-12-07T00:28:36.703Z,0.00
2023-12-07T00:29:36.756Z,0.00
2023-12-07T00:30:36.641Z,0.00
2023-12-07T00:31:36.649Z,0.00
2023-12-07T00:32:36.640Z,0.00
2023-12-07T00:33:36.595Z,0.00
2023-12-07T00:34:36.663Z,0.00
2023-12-07T00:35:36.646Z,0.00
2023-12-07T00:36:36.575Z,0.00
2023-12-07T00:37:36.632Z,0.00
2023-12-07T00:38:36.565Z,0.00
2023-12-07T00:39:36.552Z,0.00
2023-12-07T00:40:36.607Z,0.00
2023-12-07T00:41:36.569Z,0.00
2023-12-07T00:42:36.518Z,0.00
2023-12-07T00:43:36.522Z,0.00
2023-12-07T00:44:36.497Z,0.00
2023-12-07T00:45:36.493Z,0.00
2023-12-07T00:46:36.488Z,0.00
2023-12-07T00:47:36.468Z,0.00
2023-12-07T00:48:36.482Z,0.00
2023-12-07T00:49:36.456Z,0.00
2023-12-07T00:50:36.439Z,0.00
2023-12-07T00:51:36.424Z,0.00
2023-12-07T00:52:36.470Z,0.00
2023-12-07T00:53:36.391Z,0.00
2023-12-07T00:54:36.415Z,0.00
2023-12-07T00:55:36.420Z,0.00
2023-12-07T00:56:36.394Z,0.00
2023-12-07T00:57:36.357Z,0.00
2023-12-07T00:58:36.365Z,0.00
2023-12-07T00:59:36.335Z,0.00
2023-12-07T01:00:36.323Z,0.00
2023-12-07T01:01:36.407Z,0.00
2023-12-07T01:02:36.317Z,0.00
2023-12-07T01:03:36.379Z,0.00
2023-12-07T01:04:36.360Z,0.00
2023-12-07T01:05:36.443Z,0.00
2023-12-07T01:06:36.382Z,0.00
2023-12-07T01:07:36.294Z,0.00
2023-12-07T01:08:36.252Z,0.00
2023-12-07T01:09:36.244Z,0.00
2023-12-07T01:10:36.243Z,0.00
2023-12-07T01:11:36.262Z,0.00
2023-12-07T01:12:36.194Z,0.00
2023-12-07T01:13:36.259Z,0.00
2023-12-07T01:14:36.322Z,0.00
2023-12-07T01:15:36.183Z,0.00
2023-12-07T01:16:36.177Z,0.00
2023-12-07T01:17:36.137Z,0.00
2023-12-07T01:18:36.175Z,0.00
2023-12-07T01:19:36.190Z,0.00
2023-12-07T01:20:36.118Z,0.00
2023-12-07T01:21:36.123Z,0.00
2023-12-07T01:22:36.150Z,0.00
2023-12-07T01:23:36.161Z,0.00
2023-12-07T01:24:36.120Z,0.00
2023-12-07T01:25:36.195Z,0.00
2023-12-07T01:26:36.054Z,0.00
2023-12-07T01:27:36.037Z,0.00
2023-12-07T01:28:36.083Z,0.00
2023-12-07T01:29:36.021Z,0.00
2023-12-07T01:30:36.059Z,0.00
2023-12-07T01:31:36.115Z,0.00
2023-12-07T01:32:36.014Z,0.00
2023-12-07T01:33:36.052Z,0.00
2023-12-07T01:34:36.079Z,0.00
2023-12-07T01:35:35.963Z,0.00
2023-12-07T01:36:35.984Z,0.00
2023-12-07T01:37:35.996Z,0.00
2023-12-07T01:38:35.925Z,0.00
2023-12-07T01:39:35.930Z,0.00
2023-12-07T01:40:36.119Z,0.00
2023-12-07T01:41:35.948Z,0.00
2023-12-07T01:42:35.901Z,0.00
2023-12-07T01:43:35.941Z,0.00
2023-12-07T01:44:35.860Z,0.00
2023-12-07T01:45:35.901Z,0.00
2023-12-07T01:46:35.926Z,0.00
2023-12-07T01:47:35.892Z,0.00
2023-12-07T01:48:35.840Z,0.00
2023-12-07T01:49:35.851Z,0.00
2023-12-07T01:50:35.826Z,0.00
2023-12-07T01:51:35.809Z,0.00
2023-12-07T01:52:35.825Z,0.00
2023-12-07T01:53:35.803Z,0.00
2023-12-07T01:54:35.774Z,0.00
2023-12-07T01:55:35.780Z,0.00
2023-12-07T01:56:35.739Z,0.00
2023-12-07T01:57:35.749Z,0.00
2023-12-07T01:58:35.749Z,0.00
2023-12-07T01:59:35.710Z,0.00
2023-12-07T02:00:35.712Z,0.00
2023-12-07T02:01:35.855Z,0.00
2023-12-07T02:02:35.697Z,0.00
2023-12-07T02:03:35.735Z,0.00
2023-12-07T02:04:35.769Z,0.00
2023-12-07T02:05:35.698Z,0.00
2023-12-07T02:06:35.664Z,0.00
2023-12-07T02:07:35.750Z,0.00
2023-12-07T02:08:35.635Z,0.00
2023-12-07T02:09:35.607Z,0.00
2023-12-07T02:10:35.664Z,0.00
2023-12-07T02:11:35.602Z,0.00
2023-12-07T02:12:35.688Z,0.00
2023-12-07T02:13:35.610Z,0.00
2023-12-07T02:14:35.608Z,0.00
2023-12-07T02:15:35.533Z,0.00
2023-12-07T02:16:35.637Z,0.00
2023-12-07T02:17:35.558Z,0.00
2023-12-07T02:18:35.604Z,0.00
2023-12-07T02:19:35.543Z,0.00
2023-12-07T02:20:35.503Z,0.00
2023-12-07T02:21:35.486Z,0.00
2023-12-07T02:22:35.532Z,0.00
2023-12-07T02:23:46.247Z,0.00
2023-12-07T02:25:55.200Z,0.00
2023-12-07T02:26:56.184Z,0.00
2023-12-07T02:27:56.213Z,0.00
2023-12-07T02:28:56.168Z,0.00
2023-12-07T02:29:56.145Z,0.00
2023-12-07T02:30:56.473Z,0.00
2023-12-07T02:31:56.134Z,0.00
2023-12-07T02:32:56.387Z,0.00
2023-12-07T02:33:56.952Z,0.00
2023-12-07T02:34:56.104Z,0.00
2023-12-07T02:35:56.115Z,0.00
2023-12-07T02:36:56.105Z,0.00
2023-12-07T02:37:56.109Z,0.00
2023-12-07T02:38:56.097Z,0.00
2023-12-07T02:39:56.060Z,0.00
2023-12-07T02:40:56.255Z,0.00
2023-12-07T02:41:56.252Z,0.00
2023-12-07T02:42:56.047Z,0.00
2023-12-07T02:43:55.993Z,0.00
2023-12-07T02:44:56.209Z,0.00
2023-12-07T02:45:56.035Z,0.00
2023-12-07T02:46:56.217Z,0.00
2023-12-07T02:47:55.988Z,0.00
2023-12-07T02:48:56.117Z,0.00
2023-12-07T02:49:55.961Z,0.00
2023-12-07T02:50:55.954Z,0.00
2023-12-07T02:51:55.993Z,0.00
2023-12-07T02:52:55.914Z,0.00
2023-12-07T02:53:55.904Z,0.00
2023-12-07T02:54:55.923Z,0.00
2023-12-07T02:55:55.981Z,0.00
2023-12-07T02:56:55.910Z,0.00
2023-12-07T02:57:55.977Z,0.00
2023-12-07T02:58:56.166Z,0.00
2023-12-07T02:59:55.839Z,0.00
2023-12-07T03:00:56.116Z,0.00
2023-12-07T03:01:55.857Z,0.00
2023-12-07T03:02:55.841Z,0.00
2023-12-07T03:03:56.139Z,0.00
2023-12-07T03:04:56.037Z,0.00
2023-12-07T03:05:55.842Z,0.00
2023-12-07T03:06:55.841Z,0.00
2023-12-07T03:07:55.776Z,0.00
2023-12-07T03:08:55.746Z,0.00
2023-12-07T03:09:55.823Z,0.00
2023-12-07T03:10:55.741Z,0.00
2023-12-07T03:11:55.759Z,0.00
2023-12-07T03:12:55.736Z,0.00
2023-12-07T03:13:55.695Z,0.00
2023-12-07T03:14:55.759Z,0.00
2023-12-07T03:15:55.731Z,0.00
2023-12-07T03:16:57.456Z,0.00
2023-12-07T03:17:55.660Z,0.00
2023-12-07T03:18:56.692Z,0.00
2023-12-07T03:19:55.649Z,0.00
2023-12-07T03:20:55.636Z,0.00
2023-12-07T03:21:55.707Z,0.00
2023-12-07T03:22:55.679Z,0.00
2023-12-07T03:23:55.622Z,0.00
2023-12-07T03:24:55.859Z,0.00
2023-12-07T03:25:55.599Z,0.00
2023-12-07T03:26:55.644Z,0.00
2023-12-07T03:27:55.652Z,0.00
2023-12-07T03:28:55.634Z,0.00
2023-12-07T03:29:55.558Z,0.00
2023-12-07T03:30:55.876Z,0.00
2023-12-07T03:31:55.542Z,0.00
2023-12-07T03:32:55.848Z,0.00
2023-12-07T03:33:55.592Z,0.00
2023-12-07T03:34:55.513Z,0.00
2023-12-07T03:35:55.472Z,0.00
2023-12-07T03:36:55.496Z,0.00
2023-12-07T03:37:55.476Z,0.00
2023-12-07T03:38:55.537Z,0.00
2023-12-07T03:39:55.779Z,0.00
2023-12-07T03:40:55.429Z,0.00
2023-12-07T03:41:55.450Z,0.00
2023-12-07T03:42:57.217Z,0.00
2023-12-07T03:43:57.192Z,0.00
2023-12-07T03:44:55.382Z,0.00
2023-12-07T03:45:55.389Z,0.00
2023-12-07T03:46:55.662Z,0.00
2023-12-07T03:47:55.439Z,0.00
2023-12-07T03:48:55.437Z,0.00
2023-12-07T03:49:55.588Z,0.00
2023-12-07T03:50:55.328Z,0.00
2023-12-07T03:51:55.363Z,0.00
2023-12-07T03:52:55.350Z,0.00
2023-12-07T03:53:55.357Z,0.00
2023-12-07T03:54:55.272Z,0.00
2023-12-07T03:55:55.292Z,0.00
2023-12-07T03:56:55.289Z,0.00
2023-12-07T03:57:55.340Z,0.00
2023-12-07T03:58:55.259Z,0.00
2023-12-07T03:59:55.329Z,0.00
2023-12-07T04:00:55.255Z,0.00
2023-12-07T04:01:55.238Z,0.00
2023-12-07T04:02:55.270Z,0.00
2023-12-07T04:03:55.476Z,0.00
2023-12-07T04:04:55.210Z,0.00
2023-12-07T04:05:55.213Z,0.00
2023-12-07T04:06:55.182Z,0.00
2023-12-07T04:07:55.162Z,0.00
2023-12-07T04:08:55.197Z,0.00
2023-12-07T04:09:56.431Z,0.00
2023-12-07T04:10:55.115Z,0.00
2023-12-07T04:11:55.111Z,0.00
2023-12-07T04:12:55.104Z,0.00
2023-12-07T04:13:55.121Z,0.00
2023-12-07T04:14:55.104Z,0.00
2023-12-07T04:15:55.105Z,0.00
2023-12-07T04:16:55.882Z,0.00
2023-12-07T04:17:55.084Z,0.00
2023-12-07T04:18:55.148Z,0.00
2023-12-07T04:19:55.646Z,0.00
2023-12-07T04:20:55.036Z,0.00
2023-12-07T04:21:55.056Z,0.00
2023-12-07T04:22:55.009Z,0.00
2023-12-07T04:23:55.010Z,0.00
2023-12-07T04:24:55.104Z,0.00
2023-12-07T04:25:55.010Z,0.00
2023-12-07T04:26:55.009Z,0.00
2023-12-07T04:27:55.010Z,0.00
2023-12-07T04:28:54.973Z,0.00
2023-12-07T04:29:54.953Z,0.00
2023-12-07T04:30:54.939Z,0.00
2023-12-07T04:31:54.918Z,0.00
2023-12-07T04:32:55.011Z,0.00
2023-12-07T04:33:54.956Z,0.00
2023-12-07T04:34:54.912Z,0.00
2023-12-07T04:35:54.940Z,0.00
2023-12-07T04:36:54.908Z,0.00
2023-12-07T04:37:54.866Z,0.00
2023-12-07T04:38:54.853Z,0.00
2023-12-07T04:39:54.839Z,0.00
2023-12-07T04:40:55.652Z,0.00
2023-12-07T04:41:54.822Z,0.00
2023-12-07T04:42:54.812Z,0.00
2023-12-07T04:43:55.222Z,0.00
2023-12-07T04:44:54.765Z,0.00
2023-12-07T04:45:54.818Z,0.00
2023-12-07T04:46:54.824Z,0.00
2023-12-07T04:47:54.831Z,0.00
2023-12-07T04:48:54.783Z,0.00
2023-12-07T04:49:54.833Z,0.00
2023-12-07T04:50:55.546Z,0.00
2023-12-07T04:51:54.977Z,0.00
2023-12-07T04:52:54.749Z,0.00
2023-12-07T04:54:02.658Z,0.00
2023-12-07T04:54:54.674Z,0.00
2023-12-07T04:55:54.950Z,0.00
2023-12-07T04:56:54.680Z,0.00
2023-12-07T04:57:54.683Z,0.00
2023-12-07T04:58:54.642Z,0.00
2023-12-07T04:59:54.622Z,0.00
2023-12-07T05:00:54.709Z,0.00
2023-12-07T05:01:54.764Z,0.00
2023-12-07T05:02:54.697Z,0.00
2023-12-07T05:03:54.650Z,0.00
2023-12-07T05:04:54.670Z,0.00
2023-12-07T05:05:54.646Z,0.00
2023-12-07T05:06:54.846Z,0.00
2023-12-07T05:07:54.601Z,0.00
2023-12-07T05:08:54.545Z,0.00
2023-12-07T05:09:54.557Z,0.00
2023-12-07T05:11:02.290Z,0.00
2023-12-07T05:11:54.797Z,0.00
2023-12-07T05:12:54.567Z,0.00
2023-12-07T05:13:54.522Z,0.00
2023-12-07T05:14:54.491Z,0.00
2023-12-07T05:16:10.813Z,0.00
2023-12-07T05:16:54.856Z,0.00
2023-12-07T05:17:54.820Z,0.00
2023-12-07T05:18:54.703Z,0.00
2023-12-07T05:19:54.551Z,0.00
2023-12-07T05:20:54.519Z,0.00
2023-12-07T05:21:54.632Z,0.00
2023-12-07T05:22:54.574Z,0.00
2023-12-07T05:23:54.498Z,0.00
2023-12-07T05:24:54.511Z,0.00
2023-12-07T05:25:54.484Z,0.00
2023-12-07T05:26:54.516Z,0.00
2023-12-07T05:27:54.499Z,0.00
2023-12-07T05:28:54.487Z,0.00
2023-12-07T05:29:54.454Z,0.00
2023-12-07T05:30:54.420Z,0.00
2023-12-07T05:31:54.499Z,0.00
2023-12-07T05:32:54.584Z,0.00
2023-12-07T05:33:54.456Z,0.00
2023-12-07T05:34:54.531Z,0.00
2023-12-07T05:35:54.563Z,0.00
2023-12-07T05:36:54.442Z,0.00
2023-12-07T05:37:54.394Z,0.00
2023-12-07T05:38:54.281Z,0.00
2023-12-07T05:39:54.303Z,0.00
2023-12-07T05:40:54.482Z,0.00
2023-12-07T05:41:54.490Z,0.00
2023-12-07T05:42:54.301Z,0.00
2023-12-07T05:43:54.464Z,0.00
2023-12-07T05:44:54.223Z,0.00
2023-12-07T05:45:54.373Z,0.00
2023-12-07T05:46:54.235Z,0.00
2023-12-07T05:47:54.274Z,0.00
2023-12-07T05:48:57.105Z,0.00
2023-12-07T05:49:54.304Z,0.00
2023-12-07T05:50:54.310Z,0.00
2023-12-07T05:51:54.596Z,0.00
2023-12-07T05:52:54.165Z,0.00
2023-12-07T05:53:54.189Z,0.00
2023-12-07T05:54:54.248Z,0.00
2023-12-07T05:55:54.305Z,0.00
2023-12-07T05:56:54.207Z,0.00
2023-12-07T05:57:54.198Z,0.00
2023-12-07T05:58:54.220Z,0.00
2023-12-07T05:59:54.402Z,0.00
2023-12-07T06:00:54.253Z,0.00
2023-12-07T06:01:54.326Z,0.00
2023-12-07T06:02:54.186Z,0.00
2023-12-07T06:03:54.197Z,0.00
2023-12-07T06:04:54.271Z,0.00
2023-12-07T06:05:54.086Z,0.00
2023-12-07T06:06:54.048Z,0.00
2023-12-07T06:07:54.028Z,0.00
2023-12-07T06:08:54.064Z,0.00
2023-12-07T06:09:54.061Z,0.00
2023-12-07T06:10:54.025Z,0.00
2023-12-07T06:11:54.189Z,0.00
2023-12-07T06:12:53.961Z,0.00
2023-12-07T06:13:53.950Z,0.00
2023-12-07T06:14:53.981Z,0.00
2023-12-07T06:15:53.970Z,0.00
2023-12-07T06:16:53.912Z,0.00
2023-12-07T06:17:53.896Z,0.00
2023-12-07T06:18:54.075Z,0.00
2023-12-07T06:19:53.968Z,0.00
2023-12-07T06:20:53.893Z,0.00
2023-12-07T06:21:53.869Z,0.00
2023-12-07T06:22:54.010Z,0.00
2023-12-07T06:23:53.909Z,0.00
2023-12-07T06:24:53.895Z,0.00
2023-12-07T06:25:53.864Z,0.00
2023-12-07T06:26:53.826Z,0.00
2023-12-07T06:27:53.871Z,0.00
2023-12-07T06:28:53.823Z,0.00
2023-12-07T06:29:53.810Z,0.00
2023-12-07T06:30:53.789Z,0.00
2023-12-07T06:32:00.546Z,0.00
2023-12-07T06:32:53.717Z,0.00
2023-12-07T06:33:53.729Z,0.00
2023-12-07T06:34:53.800Z,0.00
2023-12-07T06:35:53.655Z,0.00
2023-12-07T06:36:53.687Z,0.00
2023-12-07T06:37:54.546Z,0.00
2023-12-07T06:38:53.663Z,0.00
2023-12-07T06:39:53.606Z,0.00
2023-12-07T06:40:53.675Z,0.00
2023-12-07T06:41:53.606Z,0.00
2023-12-07T06:42:53.595Z,0.00
2023-12-07T06:43:54.601Z,1.00
2023-12-07T06:44:54.530Z,1.00
2023-12-07T06:45:53.500Z,1.00
2023-12-07T06:46:53.673Z,1.00
2023-12-07T06:47:53.626Z,0.00
2023-12-07T06:48:53.561Z,0.00
2023-12-07T06:49:53.823Z,2.00
2023-12-07T06:50:53.505Z,1.00
2023-12-07T06:51:53.481Z,1.00
2023-12-07T06:52:53.444Z,2.00
2023-12-07T06:53:53.432Z,2.00
2023-12-07T06:54:53.400Z,7.00
2023-12-07T06:55:53.466Z,4.00
2023-12-07T06:56:53.391Z,1.00
2023-12-07T06:57:53.411Z,1.00
2023-12-07T06:58:53.380Z,2.00
2023-12-07T06:59:53.388Z,2.00
2023-12-07T07:00:53.397Z,3.00
2023-12-07T07:01:53.400Z,2.00
2023-12-07T07:02:53.321Z,5.00
2023-12-07T07:03:53.347Z,5.00
2023-12-07T07:04:53.419Z,5.00
2023-12-07T07:05:53.541Z,12.00
2023-12-07T07:06:53.330Z,11.00
2023-12-07T07:07:53.341Z,10.00
2023-12-07T07:08:53.271Z,14.00
2023-12-07T07:09:53.300Z,12.00
2023-12-07T07:10:53.312Z,11.00
2023-12-07T07:11:53.296Z,17.00
2023-12-07T07:12:53.233Z,21.00
2023-12-07T07:13:53.218Z,20.00
2023-12-07T07:14:53.198Z,20.00
2023-12-07T07:15:53.220Z,30.00
2023-12-07T07:16:53.325Z,26.00
2023-12-07T07:17:53.227Z,22.00
2023-12-07T07:18:53.233Z,28.00
2023-12-07T07:19:53.297Z,32.00
2023-12-07T07:20:53.183Z,34.00
2023-12-07T07:21:53.161Z,42.00
2023-12-07T07:22:53.147Z,48.00
2023-12-07T07:23:53.137Z,60.00
2023-12-07T07:24:53.199Z,72.00
2023-12-07T07:25:53.151Z,71.00
2023-12-07T07:26:53.088Z,72.00
2023-12-07T07:27:53.104Z,87.00
2023-12-07T07:28:53.076Z,106.00
2023-12-07T07:29:53.106Z,105.00
2023-12-07T07:30:53.055Z,121.00
2023-12-07T07:31:53.053Z,139.00
2023-12-07T07:32:53.175Z,143.00
2023-12-07T07:34:00.371Z,148.00
2023-12-07T07:34:53.096Z,164.00
2023-12-07T07:35:55.380Z,163.00
2023-12-07T07:36:52.981Z,176.00
2023-12-07T07:37:53.061Z,190.00
2023-12-07T07:38:52.983Z,205.00
2023-12-07T07:39:52.967Z,222.00
2023-12-07T07:40:52.937Z,242.00
2023-12-07T07:41:52.949Z,253.00
2023-12-07T07:42:52.948Z,284.00
2023-12-07T07:43:52.930Z,293.00
2023-12-07T07:44:52.914Z,293.00
2023-12-07T07:45:52.912Z,287.00
2023-12-07T07:46:52.924Z,313.00
2023-12-07T07:47:52.981Z,434.00
2023-12-07T07:48:53.014Z,400.00
2023-12-07T07:49:52.891Z,396.00
2023-12-07T07:50:52.873Z,403.00
2023-12-07T07:51:52.862Z,411.00
2023-12-07T07:52:52.839Z,429.00
2023-12-07T07:53:52.865Z,459.00
2023-12-07T07:54:52.856Z,488.00
2023-12-07T07:55:52.867Z,492.00
2023-12-07T07:56:52.844Z,487.00
2023-12-07T07:57:52.815Z,496.00
2023-12-07T07:58:52.779Z,533.00
2023-12-07T07:59:52.764Z,551.00
2023-12-07T08:00:52.794Z,558.00
2023-12-07T08:01:52.832Z,566.00
2023-12-07T08:02:52.726Z,590.00
2023-12-07T08:03:52.735Z,613.00
2023-12-07T08:04:52.742Z,609.00
2023-12-07T08:05:52.768Z,605.00
2023-12-07T08:06:52.925Z,620.00
2023-12-07T08:07:52.712Z,642.00
2023-12-07T08:08:52.687Z,673.00
2023-12-07T08:09:52.673Z,701.00
2023-12-07T08:10:56.034Z,745.00
2023-12-07T08:11:52.648Z,747.00
2023-12-07T08:12:52.616Z,747.00
2023-12-07T08:13:52.630Z,751.00
2023-12-07T08:14:52.654Z,762.00
2023-12-07T08:15:55.858Z,782.00
2023-12-07T08:16:52.703Z,819.00
2023-12-07T08:17:52.606Z,844.00
2023-12-07T08:18:52.611Z,867.00
2023-12-07T08:19:52.700Z,885.00
2023-12-07T08:20:52.549Z,874.00
2023-12-07T08:21:52.570Z,909.00
2023-12-07T08:22:52.520Z,953.00
2023-12-07T08:23:52.512Z,988.00
2023-12-07T08:25:00.903Z,1014.00
2023-12-07T08:25:52.610Z,987.00
2023-12-07T08:26:52.486Z,977.00
2023-12-07T08:27:52.519Z,993.00
2023-12-07T08:28:52.472Z,1022.00
2023-12-07T08:29:52.498Z,1027.00
2023-12-07T08:30:52.460Z,1011.00
2023-12-07T08:31:52.430Z,1018.00
2023-12-07T08:32:52.541Z,1026.00
2023-12-07T08:33:52.574Z,1058.00
2023-12-07T08:34:52.429Z,1056.00
2023-12-07T08:35:52.396Z,1072.00
2023-12-07T08:36:52.420Z,1065.00
2023-12-07T08:37:53.738Z,1099.00
2023-12-07T08:38:52.390Z,1097.00
2023-12-07T08:39:52.405Z,1125.00
2023-12-07T08:40:52.376Z,1163.00
2023-12-07T08:41:52.361Z,1141.00
2023-12-07T08:42:53.047Z,1149.00
2023-12-07T08:43:52.317Z,1173.00
2023-12-07T08:44:52.306Z,1184.00
2023-12-07T08:45:53.555Z,1201.00
2023-12-07T08:46:52.356Z,1205.00
2023-12-07T08:47:52.447Z,1170.00
2023-12-07T08:48:52.330Z,1163.00
2023-12-07T08:49:52.561Z,1194.00
2023-12-07T08:50:52.278Z,1208.00
2023-12-07T08:52:03.352Z,1196.00
2023-12-07T08:52:56.861Z,1192.00
2023-12-07T08:53:53.487Z,1185.00
2023-12-07T08:54:52.215Z,1226.00
2023-12-07T08:55:52.212Z,1233.00
2023-12-07T08:56:52.238Z,1215.00
2023-12-07T08:57:52.172Z,1172.00
2023-12-07T08:58:52.205Z,1272.00
2023-12-07T08:59:52.175Z,1264.00
2023-12-07T09:00:52.169Z,1262.00
2023-12-07T09:01:52.230Z,1257.00
2023-12-07T09:02:52.160Z,1250.00
2023-12-07T09:03:52.186Z,1298.00
2023-12-07T09:04:52.601Z,1313.00
2023-12-07T09:05:52.177Z,1325.00
2023-12-07T09:06:52.193Z,1332.00
2023-12-07T09:07:52.234Z,1325.00
2023-12-07T09:08:52.093Z,1395.00
2023-12-07T09:09:52.071Z,1338.00
2023-12-07T09:10:52.057Z,1399.00
2023-12-07T09:11:52.056Z,1361.00
2023-12-07T09:12:52.261Z,1369.00
2023-12-07T09:13:52.066Z,1364.00
2023-12-07T09:14:52.009Z,1388.00
2023-12-07T09:15:52.021Z,1401.00
2023-12-07T09:16:52.011Z,1383.00
2023-12-07T09:17:52.040Z,1372.00
2023-12-07T09:18:52.037Z,1387.00
2023-12-07T09:19:52.001Z,1403.00
2023-12-07T09:20:51.940Z,1396.00
2023-12-07T09:21:51.975Z,1401.00
2023-12-07T09:22:51.992Z,1401.00
2023-12-07T09:23:51.944Z,1397.00
2023-12-07T09:24:51.933Z,1417.00
2023-12-07T09:25:52.001Z,1409.00
2023-12-07T09:26:51.923Z,1425.00
2023-12-07T09:27:51.877Z,1432.00
2023-12-07T09:28:51.909Z,1463.00
2023-12-07T09:29:51.897Z,1421.00
2023-12-07T09:30:51.845Z,1448.00
2023-12-07T09:31:51.845Z,1453.00
2023-12-07T09:32:51.897Z,1482.00
2023-12-07T09:33:51.941Z,1471.00
2023-12-07T09:34:51.847Z,1512.00
2023-12-07T09:35:52.711Z,1486.00
2023-12-07T09:36:51.779Z,1468.00
2023-12-07T09:37:51.854Z,1482.00
2023-12-07T09:38:51.775Z,1488.00
2023-12-07T09:39:51.766Z,1466.00
2023-12-07T09:40:51.844Z,1463.00
2023-12-07T09:41:51.748Z,1535.00
2023-12-07T09:42:51.886Z,1453.00
2023-12-07T09:43:51.735Z,1545.00
2023-12-07T09:44:51.729Z,1399.00
2023-12-07T09:45:51.699Z,1484.00
2023-12-07T09:46:51.702Z,1523.00
2023-12-07T09:47:51.933Z,1403.00
2023-12-07T09:48:51.765Z,1448.00
2023-12-07T09:49:51.709Z,1547.00
2023-12-07T09:50:51.659Z,1409.00
2023-12-07T09:51:51.676Z,1286.00
2023-12-07T09:52:57.065Z,1547.00
2023-12-07T09:53:52.477Z,1394.00
2023-12-07T09:54:51.630Z,1546.00
2023-12-07T09:55:51.655Z,1443.00
2023-12-07T09:56:51.622Z,1534.00
2023-12-07T09:57:51.586Z,1450.00
2023-12-07T09:58:51.640Z,1475.00
2023-12-07T09:59:51.577Z,1498.00
2023-12-07T10:00:51.571Z,1502.00
2023-12-07T10:01:51.579Z,1531.00
2023-12-07T10:02:52.299Z,1498.00
2023-12-07T10:03:51.635Z,1491.00
2023-12-07T10:04:51.562Z,1531.00
2023-12-07T10:05:51.496Z,1474.00
2023-12-07T10:06:51.500Z,1523.00
2023-12-07T10:07:51.665Z,1527.00
2023-12-07T10:08:51.508Z,1508.00
2023-12-07T10:09:51.488Z,1453.00
2023-12-07T10:10:51.467Z,1523.00
2023-12-07T10:11:51.460Z,1562.00
2023-12-07T10:12:51.443Z,1466.00
2023-12-07T10:13:51.584Z,1501.00
2023-12-07T10:14:51.412Z,1524.00
2023-12-07T10:15:51.420Z,1516.00
2023-12-07T10:16:51.416Z,1482.00
2023-12-07T10:17:51.500Z,1470.00
2023-12-07T10:18:51.534Z,1525.00
2023-12-07T10:19:51.479Z,1485.00
2023-12-07T10:20:51.364Z,1515.00
2023-12-07T10:21:51.336Z,1533.00
2023-12-07T10:22:51.343Z,1513.00
2023-12-07T10:23:51.321Z,1503.00
2023-12-07T10:24:51.294Z,1535.00
2023-12-07T10:25:51.306Z,1588.00
2023-12-07T10:27:00.051Z,1537.00
2023-12-07T10:27:51.285Z,1516.00
2023-12-07T10:28:51.329Z,1563.00
2023-12-07T10:29:51.264Z,1529.00
2023-12-07T10:30:51.249Z,1561.00
2023-12-07T10:31:51.786Z,1549.00
2023-12-07T10:32:51.287Z,1478.00
2023-12-07T10:33:51.413Z,1542.00
2023-12-07T10:34:51.276Z,1560.00
2023-12-07T10:35:51.222Z,1487.00
2023-12-07T10:36:51.179Z,1684.00
2023-12-07T10:37:51.214Z,1588.00
2023-12-07T10:38:51.156Z,1358.00
2023-12-07T10:39:51.153Z,1592.00
2023-12-07T10:40:51.210Z,1447.00
2023-12-07T10:41:51.148Z,1467.00
2023-12-07T10:42:51.120Z,1550.00
2023-12-07T10:43:51.167Z,1530.00
2023-12-07T10:44:51.159Z,1555.00
2023-12-07T10:45:51.096Z,1571.00
2023-12-07T10:46:51.137Z,1520.00
2023-12-07T10:47:51.102Z,1506.00
2023-12-07T10:48:51.087Z,1564.00
2023-12-07T10:49:51.145Z,1605.00
2023-12-07T10:50:51.097Z,1552.00
2023-12-07T10:51:51.051Z,1530.00
2023-12-07T10:52:51.081Z,1521.00
2023-12-07T10:53:51.017Z,1488.00
2023-12-07T10:54:51.037Z,1454.00
2023-12-07T10:55:51.064Z,1491.00
2023-12-07T10:56:51.219Z,1599.00
2023-12-07T10:57:50.966Z,1726.00
2023-12-07T10:58:51.002Z,1707.00
2023-12-07T10:59:50.978Z,1519.00
2023-12-07T11:00:51.035Z,1670.00
2023-12-07T11:01:51.156Z,1383.00
2023-12-07T11:02:51.097Z,1470.00
2023-12-07T11:03:50.964Z,1614.00
2023-12-07T11:04:51.009Z,1497.00
2023-12-07T11:05:51.074Z,1543.00
2023-12-07T11:06:50.921Z,1602.00
2023-12-07T11:07:50.917Z,1310.00
2023-12-07T11:08:50.896Z,1532.00
2023-12-07T11:09:50.859Z,1412.00
2023-12-07T11:10:50.833Z,1420.00
2023-12-07T11:11:50.880Z,1463.00
2023-12-07T11:12:50.830Z,1514.00
2023-12-07T11:13:50.841Z,1341.00
2023-12-07T11:14:50.833Z,1515.00
2023-12-07T11:15:50.808Z,1284.00
2023-12-07T11:16:50.805Z,1570.00
2023-12-07T11:17:50.844Z,1493.00
2023-12-07T11:18:50.869Z,1552.00
2023-12-07T11:19:50.823Z,1438.00
2023-12-07T11:20:50.753Z,1115.00
2023-12-07T11:21:50.759Z,1315.00
2023-12-07T11:22:50.759Z,1461.00
2023-12-07T11:23:50.734Z,1466.00
2023-12-07T11:24:50.698Z,1553.00
2023-12-07T11:25:50.785Z,1610.00
2023-12-07T11:26:50.678Z,1382.00
2023-12-07T11:27:50.694Z,1479.00
2023-12-07T11:28:50.697Z,1396.00
2023-12-07T11:29:50.640Z,1641.00
2023-12-07T11:30:50.664Z,1377.00
2023-12-07T11:31:50.644Z,1514.00
2023-12-07T11:32:50.687Z,1555.00
2023-12-07T11:33:50.658Z,1496.00
2023-12-07T11:34:50.601Z,1429.00
2023-12-07T11:35:50.613Z,1338.00
2023-12-07T11:36:50.588Z,1464.00
2023-12-07T11:37:50.577Z,1520.00
2023-12-07T11:38:50.564Z,1358.00
2023-12-07T11:39:50.557Z,1505.00
2023-12-07T11:40:50.526Z,1566.00
2023-12-07T11:41:50.560Z,1505.00
2023-12-07T11:42:50.582Z,1261.00
2023-12-07T11:43:50.571Z,1435.00
2023-12-07T11:44:50.525Z,1495.00
2023-12-07T11:45:50.508Z,1544.00
2023-12-07T11:46:50.542Z,1392.00
2023-12-07T11:47:50.539Z,1538.00
2023-12-07T11:48:50.737Z,1462.00
2023-12-07T11:49:50.645Z,1444.00
2023-12-07T11:50:50.444Z,1462.00
2023-12-07T11:51:50.423Z,1475.00
2023-12-07T11:52:50.448Z,1633.00
2023-12-07T11:53:50.427Z,1476.00
2023-12-07T11:54:50.421Z,1304.00
2023-12-07T11:55:50.382Z,1455.00
2023-12-07T11:56:50.434Z,1487.00
2023-12-07T11:57:50.394Z,1528.00
2023-12-07T11:58:50.426Z,1526.00
2023-12-07T11:59:50.521Z,1544.00
2023-12-07T12:00:50.388Z,1574.00
2023-12-07T12:01:50.462Z,1562.00
2023-12-07T12:02:50.363Z,1605.00
2023-12-07T12:03:50.327Z,1547.00
2023-12-07T12:04:50.420Z,1551.00
2023-12-07T12:05:50.533Z,1585.00
2023-12-07T12:06:50.342Z,1598.00
2023-12-07T12:07:50.509Z,1613.00
2023-12-07T12:08:50.389Z,1633.00
2023-12-07T12:09:50.415Z,1615.00
2023-12-07T12:10:50.392Z,1659.00
2023-12-07T12:11:50.288Z,1606.00
2023-12-07T12:12:50.257Z,1623.00
2023-12-07T12:13:50.442Z,1617.00
2023-12-07T12:14:50.273Z,1616.00
2023-12-07T12:15:50.213Z,1630.00
2023-12-07T12:16:50.350Z,1606.00
2023-12-07T12:17:50.310Z,1578.00
2023-12-07T12:18:50.350Z,1613.00
2023-12-07T12:19:50.279Z,1603.00
2023-12-07T12:20:50.247Z,1574.00
2023-12-07T12:21:50.269Z,1570.00
2023-12-07T12:22:50.379Z,1563.00
2023-12-07T12:23:50.207Z,1571.00
2023-12-07T12:24:50.198Z,1549.00
2023-12-07T12:25:50.386Z,1547.00
2023-12-07T12:26:50.273Z,1547.00
2023-12-07T12:27:50.134Z,1543.00
2023-12-07T12:28:50.171Z,1544.00
2023-12-07T12:29:50.206Z,1539.00
2023-12-07T12:30:50.492Z,1527.00
2023-12-07T12:31:50.093Z,1526.00
2023-12-07T12:32:50.127Z,1538.00
2023-12-07T12:33:50.134Z,1504.00
2023-12-07T12:34:50.097Z,1519.00
2023-12-07T12:35:50.033Z,1487.00
2023-12-07T12:36:50.077Z,1467.00
2023-12-07T12:37:50.111Z,1452.00
2023-12-07T12:38:50.020Z,1443.00
2023-12-07T12:39:50.026Z,1421.00
2023-12-07T12:40:50.063Z,1442.00
2023-12-07T12:41:50.021Z,1424.00
2023-12-07T12:42:50.282Z,1422.00
2023-12-07T12:43:49.976Z,1419.00
2023-12-07T12:44:49.983Z,1406.00
2023-12-07T12:46:04.476Z,1395.00
2023-12-07T12:46:50.034Z,1386.00
2023-12-07T12:47:50.018Z,1378.00
2023-12-07T12:48:49.953Z,1377.00